Time;durP1;ratioP1;P1;durP2;ratioP2;P2;SDS_P1;SDS_P2;PMS_P1;PMS_P2;Temp;Humidity;BMP_temperature;BMP_pressure;BME280_temperature;BME280_humidity;BME280_pressure;Samples;Min_cycle;Max_cycle;Signal;HPM_P1;HPM_P2
2021/10/21 00:00:23;;;;;;;13.02;9.27;;;;;;;14.13;88.25;97982.97;5001642;28;20038;-80
2021/10/21 00:02:48;;;;;;;11.40;8.27;;;;;;;14.10;88.76;97975.34;4997822;28;20069;-80
2021/10/21 00:05:14;;;;;;;11.05;7.97;;;;;;;14.08;88.77;97961.94;4999467;28;20026;-80
2021/10/21 00:07:39;;;;;;;10.57;7.75;;;;;;;14.12;88.64;97967.63;4998202;28;20023;-80
2021/10/21 00:10:06;;;;;;;10.90;7.47;;;;;;;14.11;88.36;97966.81;4998672;28;20030;-80
2021/10/21 00:12:32;;;;;;;13.27;7.40;;;;;;;14.17;88.01;97951.78;4983645;28;20053;-81
2021/10/21 00:14:59;;;;;;;10.75;7.43;;;;;;;14.20;87.62;97955.81;5002745;28;20547;-79
2021/10/21 00:17:26;;;;;;;10.80;7.10;;;;;;;14.18;87.96;97964.41;5001256;28;20029;-80
2021/10/21 00:19:51;;;;;;;11.65;7.50;;;;;;;14.16;87.68;97954.84;4982560;28;20018;-79
2021/10/21 00:22:18;;;;;;;10.90;6.82;;;;;;;14.18;87.76;97947.09;4983790;28;20049;-81
2021/10/21 00:24:44;;;;;;;10.40;6.55;;;;;;;14.16;87.97;97943.84;4998685;28;20476;-80
2021/10/21 00:27:09;;;;;;;9.85;7.40;;;;;;;14.15;87.97;97939.47;5003667;28;20030;-80
2021/10/21 00:29:34;;;;;;;9.50;6.57;;;;;;;14.13;87.89;97938.97;4989555;28;20046;-79
2021/10/21 00:32:00;;;;;;;9.82;6.70;;;;;;;14.15;88.09;97936.72;5007506;28;20115;-79
2021/10/21 00:34:25;;;;;;;9.43;7.00;;;;;;;14.09;88.44;97933.31;4999524;28;20049;-79
2021/10/21 00:36:51;;;;;;;8.30;6.35;;;;;;;14.14;88.53;97935.91;5001741;28;20030;-80
2021/10/21 00:39:16;;;;;;;12.38;6.65;;;;;;;14.16;87.97;97935.59;5003498;28;20050;-79
2021/10/21 00:41:41;;;;;;;9.45;6.50;;;;;;;14.11;88.34;97921.97;5010961;28;20399;-79
2021/10/21 00:44:12;;;;;;;12.13;6.13;;;;;;;14.08;88.65;97917.13;4991680;28;20475;-80
2021/10/21 00:46:41;;;;;;;9.55;5.93;;;;;;;14.10;88.37;97921.16;5000568;28;20395;-79
2021/10/21 00:49:07;;;;;;;9.88;6.03;;;;;;;14.15;88.09;97917.47;5001649;28;20035;-79
2021/10/21 00:51:36;;;;;;;11.40;5.97;;;;;;;14.14;88.21;97918.59;4984700;28;20058;-79
2021/10/21 00:54:03;;;;;;;10.48;6.28;;;;;;;14.15;88.04;97910.03;4999740;28;20086;-79
2021/10/21 00:56:30;;;;;;;10.95;6.40;;;;;;;14.13;88.24;97915.00;4995233;28;20459;-78
2021/10/21 00:58:56;;;;;;;9.35;5.50;;;;;;;14.18;88.04;97909.38;4998933;28;20038;-79
2021/10/21 01:01:22;;;;;;;11.10;6.05;;;;;;;14.16;88.24;97908.09;4997777;28;20057;-79
2021/10/21 01:03:50;;;;;;;10.80;6.25;;;;;;;14.21;88.22;97896.94;4997685;28;20026;-79
2021/10/21 01:06:17;;;;;;;9.60;5.80;;;;;;;14.21;88.37;97895.00;4996678;28;20038;-79
2021/10/21 01:08:42;;;;;;;8.88;6.10;;;;;;;14.20;88.36;97882.34;4997909;28;20038;-79
2021/10/21 01:11:09;;;;;;;9.40;5.95;;;;;;;14.22;88.29;97876.53;5003476;28;20073;-81
2021/10/21 01:13:34;;;;;;;9.23;6.38;;;;;;;14.24;88.46;97871.53;4996310;28;20034;-78
2021/10/21 01:16:08;;;;;;;11.98;6.13;;;;;;;14.29;88.63;97865.84;5017733;28;20018;-79
2021/10/21 01:18:34;;;;;;;11.25;6.15;;;;;;;14.29;88.87;97865.84;5017668;28;20022;-78
2021/10/21 01:21:01;;;;;;;9.07;5.75;;;;;;;14.27;88.82;97849.69;5017973;28;20010;-78
2021/10/21 01:23:27;;;;;;;9.75;5.95;;;;;;;14.25;89.23;97848.38;5018110;28;20015;-77
2021/10/21 01:25:52;;;;;;;9.43;6.05;;;;;;;14.30;89.05;97851.78;5001117;28;20041;-79
2021/10/21 01:28:19;;;;;;;9.77;5.75;;;;;;;14.30;89.37;97853.72;5017220;28;20038;-77
2021/10/21 01:30:44;;;;;;;11.98;5.82;;;;;;;14.30;89.52;97840.78;5017554;28;20038;-79
2021/10/21 01:33:10;;;;;;;9.18;6.57;;;;;;;14.29;89.78;97847.41;5016579;28;20038;-78
2021/10/21 01:35:37;;;;;;;7.95;6.07;;;;;;;14.34;89.98;97841.78;5016324;28;20089;-79
2021/10/21 01:38:02;;;;;;;12.27;5.90;;;;;;;14.33;90.08;97831.09;4999683;28;20111;-81
2021/10/21 01:40:27;;;;;;;8.70;5.72;;;;;;;14.32;90.36;97837.69;5015639;28;20018;-81
2021/10/21 01:42:53;;;;;;;17.30;6.70;;;;;;;14.31;90.71;97830.59;5016202;28;20026;-79
2021/10/21 01:45:24;;;;;;;10.77;6.35;;;;;;;14.32;90.91;97826.69;4999169;28;20010;-80
2021/10/21 01:47:51;;;;;;;8.25;5.82;;;;;;;14.32;91.24;97821.19;5017514;28;20018;-80
2021/10/21 01:50:17;;;;;;;9.18;6.10;;;;;;;14.29;91.85;97814.38;5017356;28;20019;-81
2021/10/21 01:52:43;;;;;;;12.00;5.90;;;;;;;14.31;91.92;97816.84;5018109;28;20011;-81
2021/10/21 01:55:10;;;;;;;9.43;6.18;;;;;;;14.30;92.39;97806.94;5018246;28;20030;-76
2021/10/21 01:57:37;;;;;;;14.50;6.28;;;;;;;14.30;92.52;97806.94;5020942;28;20030;-77
2021/10/21 02:00:17;;;;;;;9.55;5.78;;;;;;;14.31;92.68;97808.56;5019891;28;20035;-80
2021/10/21 02:02:44;;;;;;;8.70;5.50;;;;;;;14.34;92.70;97800.53;5019793;28;20026;-77
2021/10/21 02:05:12;;;;;;;12.63;6.95;;;;;;;14.31;92.79;97792.06;5020666;28;20049;-77
2021/10/21 02:07:37;;;;;;;10.13;6.25;;;;;;;14.26;93.33;97801.28;5021472;28;20049;-77
2021/10/21 02:10:08;;;;;;;10.27;5.82;;;;;;;14.26;93.28;97784.78;5021608;28;20022;-78
2021/10/21 02:12:33;;;;;;;7.95;5.72;;;;;;;14.30;93.47;97788.50;5020746;28;20033;-79
2021/10/21 02:14:59;;;;;;;9.27;5.30;;;;;;;14.29;93.64;97777.81;5004715;28;20003;-76
2021/10/21 02:17:25;;;;;;;9.25;5.45;;;;;;;14.26;93.84;97778.44;5004669;28;20046;-76
2021/10/21 02:19:51;;;;;;;9.43;5.78;;;;;;;14.29;93.76;97773.13;5021289;28;20322;-76
2021/10/21 02:22:18;;;;;;;15.18;6.88;;;;;;;14.31;94.00;97775.56;5005004;28;20015;-77
2021/10/21 02:24:43;;;;;;;8.15;5.30;;;;;;;14.27;94.04;97778.16;5021400;28;20022;-77
2021/10/21 02:27:08;;;;;;;9.98;5.22;;;;;;;14.25;94.10;97783.13;5004669;28;21414;-77
2021/10/21 02:29:34;;;;;;;8.88;5.43;;;;;;;14.28;93.88;97765.97;5021045;28;20031;-76
2021/10/21 02:32:00;;;;;;;7.28;5.53;;;;;;;14.31;94.22;97779.13;5021274;28;20057;-76
2021/10/21 02:34:25;;;;;;;9.38;5.22;;;;;;;14.27;94.08;97775.41;5004486;28;20021;-76
2021/10/21 02:36:51;;;;;;;11.65;5.30;;;;;;;14.31;93.43;97768.13;5021174;28;20037;-76
2021/10/21 02:39:17;;;;;;;16.45;6.13;;;;;;;14.29;93.69;97766.78;5020997;28;20010;-76
2021/10/21 02:41:42;;;;;;;20.35;5.80;;;;;;;14.31;93.67;97770.06;5020807;28;20018;-76
2021/10/21 02:44:08;;;;;;;7.47;5.13;;;;;;;14.35;93.54;97765.53;5021051;28;20018;-76
2021/10/21 02:46:33;;;;;;;11.52;5.10;;;;;;;14.30;93.65;97757.41;5021023;28;20079;-77
2021/10/21 02:48:59;;;;;;;8.30;5.10;;;;;;;14.25;93.82;97750.13;5004071;28;20022;-75
2021/10/21 02:51:24;;;;;;;9.77;5.13;;;;;;;14.27;94.32;97758.88;5021010;28;20055;-77
2021/10/21 02:53:50;;;;;;;10.88;5.05;;;;;;;14.25;94.16;97757.59;5021396;28;20062;-76
2021/10/21 02:56:15;;;;;;;8.18;4.88;;;;;;;14.30;93.93;97746.41;5020909;28;20014;-76
2021/10/21 02:58:40;;;;;;;7.10;4.75;;;;;;;14.30;93.56;97743.66;5004171;28;20024;-76
2021/10/21 03:01:06;;;;;;;7.05;4.95;;;;;;;14.35;93.59;97744.34;5020649;28;20011;-76
2021/10/21 03:03:32;;;;;;;6.50;4.82;;;;;;;14.34;93.01;97742.75;5003885;28;20010;-78
2021/10/21 03:05:57;;;;;;;8.82;4.78;;;;;;;14.31;93.82;97737.84;5020501;28;20018;-77
2021/10/21 03:08:22;;;;;;;8.43;4.57;;;;;;;14.32;93.72;97733.94;5020663;28;20019;-76
2021/10/21 03:10:48;;;;;;;9.65;5.30;;;;;;;14.31;93.49;97737.03;5020409;28;20050;-77
2021/10/21 03:13:14;;;;;;;9.10;5.00;;;;;;;14.31;93.52;97735.09;5020534;28;20006;-75
2021/10/21 03:15:40;;;;;;;9.70;5.28;;;;;;;14.29;93.37;97733.78;5003701;28;20025;-76
2021/10/21 03:18:05;;;;;;;8.50;5.10;;;;;;;14.31;93.25;97728.78;5020285;28;20018;-76
2021/10/21 03:20:32;;;;;;;7.47;4.75;;;;;;;14.28;93.12;97730.22;5019735;28;20038;-76
2021/10/21 03:22:57;;;;;;;6.82;4.88;;;;;;;14.32;92.40;97724.88;5020638;28;20027;-76
2021/10/21 03:25:23;;;;;;;10.70;5.10;;;;;;;14.34;92.28;97722.66;5020162;28;20091;-77
2021/10/21 03:27:48;;;;;;;6.32;4.90;;;;;;;14.38;91.16;97724.41;4998793;28;20034;-76
2021/10/21 03:30:14;;;;;;;6.70;4.85;;;;;;;14.36;91.34;97723.13;4998699;28;20038;-79
2021/10/21 03:32:39;;;;;;;9.90;5.10;;;;;;;14.36;91.80;97718.44;4999156;28;20019;-79
2021/10/21 03:35:07;;;;;;;9.15;5.65;;;;;;;14.37;92.45;97722.00;5015599;28;19999;-81
2021/10/21 03:37:33;;;;;;;9.02;5.38;;;;;;;14.42;91.47;97719.88;4999157;28;20014;-77
2021/10/21 03:39:59;;;;;;;11.18;5.07;;;;;;;14.39;91.53;97727.97;4999045;28;20011;-76
2021/10/21 03:42:25;;;;;;;12.60;5.70;;;;;;;14.39;91.73;97716.97;4998958;28;20034;-78
2021/10/21 03:44:54;;;;;;;8.23;4.85;;;;;;;14.36;92.03;97723.94;5000248;28;20094;-78
2021/10/21 03:47:19;;;;;;;9.88;5.38;;;;;;;14.33;92.12;97729.28;4999038;28;20015;-76
2021/10/21 03:49:45;;;;;;;8.57;4.95;;;;;;;14.30;92.09;97730.72;4999997;28;20011;-79
2021/10/21 03:52:10;;;;;;;9.95;4.75;;;;;;;14.33;92.03;97719.09;4999737;28;20087;-77
2021/10/21 03:54:36;;;;;;;8.98;5.93;;;;;;;14.30;92.55;97729.91;5000547;28;20015;-76
2021/10/21 03:57:01;;;;;;;9.63;5.38;;;;;;;14.36;91.70;97723.13;4999883;28;20044;-80
2021/10/21 03:59:27;;;;;;;8.13;4.88;;;;;;;14.36;91.82;97732.19;4998750;28;20035;-78
2021/10/21 04:01:53;;;;;;;9.63;5.30;;;;;;;14.34;91.52;97725.41;4999129;28;20062;-76
2021/10/21 04:04:19;;;;;;;8.27;4.93;;;;;;;14.29;92.38;97722.78;4999407;28;20041;-80
2021/10/21 04:06:44;;;;;;;12.13;5.88;;;;;;;14.34;92.43;97719.91;4998454;28;20030;-77
2021/10/21 04:09:10;;;;;;;7.68;5.15;;;;;;;14.29;92.17;97709.84;4999647;28;20027;-78
2021/10/21 04:11:35;;;;;;;10.05;5.30;;;;;;;14.36;92.04;97723.13;4999825;28;20023;-77
2021/10/21 04:14:01;;;;;;;8.20;5.07;;;;;;;14.39;91.69;97723.28;4999782;28;20066;-78
2021/10/21 04:16:27;;;;;;;10.25;5.15;;;;;;;14.44;90.36;97719.53;4999104;28;20027;-77
2021/10/21 04:18:52;;;;;;;8.32;4.97;;;;;;;14.40;90.94;97719.41;4999189;28;20025;-77
2021/10/21 04:21:18;;;;;;;16.30;5.25;;;;;;;14.40;90.84;97710.34;4999669;28;20041;-75
2021/10/21 04:23:43;;;;;;;7.88;5.03;;;;;;;14.41;90.72;97722.94;4999641;28;20018;-77
2021/10/21 04:26:10;;;;;;;9.60;5.00;;;;;;;14.36;91.08;97704.69;5015029;28;20050;-80
2021/10/21 04:28:36;;;;;;;12.63;5.43;;;;;;;14.40;90.55;97708.41;5009140;28;20046;-77
2021/10/21 04:31:01;;;;;;;7.75;4.38;;;;;;;14.40;90.82;97705.66;5002268;28;20010;-78
2021/10/21 04:33:27;;;;;;;9.02;5.07;;;;;;;14.38;90.47;97704.34;5017090;28;20098;-80
2021/10/21 04:35:52;;;;;;;9.85;5.07;;;;;;;14.43;90.25;97702.25;5017153;28;20046;-80
2021/10/21 04:38:18;;;;;;;9.05;5.13;;;;;;;14.41;90.28;97696.25;5018218;28;20011;-80
2021/10/21 04:40:43;;;;;;;17.83;5.00;;;;;;;14.49;89.51;97689.13;5001340;28;20030;-78
2021/10/21 04:43:09;;;;;;;9.23;5.75;;;;;;;14.43;90.19;97690.44;5017954;28;20049;-79
2021/10/21 04:45:34;;;;;;;8.40;4.93;;;;;;;14.42;89.09;97683.28;4997459;28;20054;-80
2021/10/21 04:48:00;;;;;;;11.82;5.10;;;;;;;14.45;89.29;97688.16;5013900;28;20039;-80
2021/10/21 04:50:26;;;;;;;8.43;4.32;;;;;;;14.50;88.93;97682.50;4993558;28;20007;-78
2021/10/21 04:52:55;;;;;;;8.07;4.95;;;;;;;14.51;89.36;97680.53;5013994;28;20042;-80
2021/10/21 04:55:22;;;;;;;7.30;4.40;;;;;;;14.46;90.15;97685.09;5015904;28;20038;-78
2021/10/21 04:57:48;;;;;;;8.63;5.38;;;;;;;14.43;90.90;97676.66;5018306;28;20021;-77
2021/10/21 05:00:14;;;;;;;8.43;4.57;;;;;;;14.45;91.91;97677.13;4997481;28;20039;-81
2021/10/21 05:02:40;;;;;;;7.32;4.28;;;;;;;14.44;92.19;97672.75;4989256;28;20031;-80
2021/10/21 05:05:06;;;;;;;13.23;5.47;;;;;;;14.37;93.60;97664.22;4994069;28;20034;-80
2021/10/21 05:07:31;;;;;;;6.95;4.18;;;;;;;14.34;94.27;97664.88;4994312;28;20038;-79
2021/10/21 05:09:57;;;;;;;9.05;4.65;;;;;;;14.25;95.88;97666.81;4994772;28;20027;-80
2021/10/21 05:12:23;;;;;;;7.80;4.90;;;;;;;14.22;97.25;97667.47;4994647;28;20083;-80
2021/10/21 05:14:49;;;;;;;8.15;4.72;;;;;;;14.12;98.95;97654.03;4986587;28;20070;-80
2021/10/21 05:17:15;;;;;;;6.53;4.53;;;;;;;14.00;100.00;97651.13;4983576;28;20518;-80
2021/10/21 05:19:41;;;;;;;10.05;5.18;;;;;;;13.97;100.00;97657.28;4986359;28;20038;-80
2021/10/21 05:22:07;;;;;;;11.63;6.90;;;;;;;14.01;100.00;97647.22;4988436;28;20019;-79
2021/10/21 05:24:33;;;;;;;8.10;5.63;;;;;;;13.95;100.00;97639.16;4989865;28;20042;-80
2021/10/21 05:26:58;;;;;;;8.60;4.78;;;;;;;13.89;100.00;97645.97;4993355;28;20027;-80
2021/10/21 05:29:24;;;;;;;8.40;4.35;;;;;;;13.82;100.00;97637.38;4997642;28;20023;-78
2021/10/21 05:31:49;;;;;;;8.43;4.22;;;;;;;13.86;100.00;97646.59;5001766;28;20011;-76
2021/10/21 05:34:14;;;;;;;10.68;4.88;;;;;;;13.84;100.00;97639.81;5002270;28;20045;-80
2021/10/21 05:36:40;;;;;;;10.63;5.78;;;;;;;13.85;99.84;97646.91;4999249;28;20034;-78
2021/10/21 05:39:05;;;;;;;6.43;4.68;;;;;;;13.86;97.70;97643.03;4998952;28;20031;-80
2021/10/21 05:41:31;;;;;;;6.57;4.40;;;;;;;13.86;97.34;97632.84;4999984;28;20042;-79
2021/10/21 05:43:56;;;;;;;5.70;4.15;;;;;;;13.99;96.46;97631.06;4998860;28;20086;-79
2021/10/21 05:46:22;;;;;;;6.72;4.10;;;;;;;14.02;94.43;97632.34;5001058;28;20065;-82
2021/10/21 05:48:47;;;;;;;9.77;4.10;;;;;;;14.07;93.88;97635.75;4996620;28;20103;-78
2021/10/21 05:51:13;;;;;;;6.90;4.20;;;;;;;14.08;92.58;97631.06;4990655;28;20035;-80
2021/10/21 05:53:38;;;;;;;7.13;3.80;;;;;;;14.10;92.37;97642.53;4995118;28;20023;-80
2021/10/21 05:56:04;;;;;;;8.38;4.30;;;;;;;14.08;91.86;97633.81;4990963;28;20041;-79
2021/10/21 05:58:29;;;;;;;9.48;3.95;;;;;;;14.08;92.08;97640.13;5000062;28;20038;-81
2021/10/21 06:00:55;;;;;;;9.75;4.25;;;;;;;14.11;93.19;97639.47;4982981;28;20042;-81
2021/10/21 06:03:20;;;;;;;7.47;3.90;;;;;;;14.13;91.45;97641.88;5001104;28;20014;-79
2021/10/21 06:05:46;;;;;;;5.00;3.70;;;;;;;14.13;90.99;97636.38;4990803;28;20061;-82
2021/10/21 06:08:11;;;;;;;6.63;3.85;;;;;;;14.10;90.35;97648.03;5007193;28;20022;-80
2021/10/21 06:10:37;;;;;;;6.22;3.70;;;;;;;14.11;90.01;97638.66;5011789;28;20011;-78
2021/10/21 06:13:05;;;;;;;9.82;3.70;;;;;;;14.15;89.88;97639.63;5005331;28;20033;-73
2021/10/21 06:15:31;;;;;;;6.07;3.63;;;;;;;14.21;89.32;97644.63;5000089;28;20078;-76
2021/10/21 06:17:57;;;;;;;7.30;3.40;;;;;;;14.24;87.62;97643.16;4999565;28;20018;-78
2021/10/21 06:20:23;;;;;;;5.78;3.67;;;;;;;14.29;86.71;97638.28;4996744;28;20125;-79
2021/10/21 06:22:51;;;;;;;4.47;3.33;;;;;;;14.30;86.94;97653.69;4999855;28;20097;-78
2021/10/21 06:25:17;;;;;;;7.68;2.83;;;;;;;14.35;86.30;97655.47;5000742;28;20023;-78
2021/10/21 06:27:42;;;;;;;4.53;3.08;;;;;;;14.35;86.75;97649.97;4991719;28;20060;-80
2021/10/21 06:30:08;;;;;;;7.82;2.97;;;;;;;14.29;86.11;97648.47;5000335;28;20010;-73
2021/10/21 06:32:34;;;;;;;5.43;3.53;;;;;;;14.35;87.40;97648.03;5001525;28;20082;-78
2021/10/21 06:35:01;;;;;;;7.07;3.55;;;;;;;14.35;86.07;97658.22;5001402;28;20018;-73
2021/10/21 06:37:26;;;;;;;12.50;3.67;;;;;;;14.36;85.96;97654.34;5001365;28;20054;-73
2021/10/21 06:39:54;;;;;;;8.40;3.20;;;;;;;14.46;85.95;97651.25;5001491;28;20015;-73
2021/10/21 06:42:23;;;;;;;5.95;3.20;;;;;;;14.44;85.36;97659.00;4982000;28;20011;-73
2021/10/21 06:44:50;;;;;;;6.07;3.47;;;;;;;14.48;84.93;97658.03;5001316;28;20050;-73
2021/10/21 06:47:15;;;;;;;6.07;3.45;;;;;;;14.50;85.24;97659.66;5001482;28;20046;-72
2021/10/21 06:49:41;;;;;;;9.40;3.53;;;;;;;14.51;85.16;97653.81;4986303;28;20031;-73
2021/10/21 06:52:07;;;;;;;6.45;3.78;;;;;;;14.58;85.52;97650.56;4973879;28;20023;-74
2021/10/21 06:54:32;;;;;;;5.82;3.00;;;;;;;14.54;84.65;97658.66;4974284;28;20595;-76
2021/10/21 06:56:58;;;;;;;9.57;3.75;;;;;;;14.61;84.78;97658.16;4956501;28;20026;-74
2021/10/21 06:59:23;;;;;;;7.53;3.30;;;;;;;14.61;84.45;97661.72;4974513;28;20026;-73
2021/10/21 07:01:49;;;;;;;5.40;3.40;;;;;;;14.61;85.78;97664.47;4975324;28;20023;-75
2021/10/21 07:04:15;;;;;;;6.65;2.97;;;;;;;14.58;85.62;97670.63;4975596;28;20033;-76
2021/10/21 07:06:40;;;;;;;8.18;3.78;;;;;;;14.50;85.33;97678.94;4958153;28;20464;-77
2021/10/21 07:09:06;;;;;;;7.90;4.05;;;;;;;14.49;85.43;97672.59;4973953;28;20031;-76
2021/10/21 07:11:31;;;;;;;8.43;3.55;;;;;;;14.47;86.30;97667.41;4973679;28;20686;-74
2021/10/21 07:13:57;;;;;;;8.48;3.40;;;;;;;14.53;85.17;97679.09;4959828;28;20483;-76
2021/10/21 07:16:23;;;;;;;8.90;4.28;;;;;;;14.48;86.46;97666.28;4999444;28;20038;-77
2021/10/21 07:18:48;;;;;;;5.95;3.53;;;;;;;14.49;86.42;97667.09;5003052;28;20371;-77
2021/10/21 07:21:17;;;;;;;7.13;4.00;;;;;;;14.46;86.82;97668.56;4995671;28;20056;-76
2021/10/21 07:23:46;;;;;;;6.55;3.83;;;;;;;14.44;86.52;97675.50;4993845;28;20034;-77
2021/10/21 07:26:13;;;;;;;10.38;4.20;;;;;;;14.44;86.82;97678.25;4992322;28;20087;-74
2021/10/21 07:28:39;;;;;;;7.63;3.80;;;;;;;14.46;86.90;97681.53;4994280;28;20046;-78
2021/10/21 07:31:05;;;;;;;7.60;3.38;;;;;;;14.44;87.62;97675.50;4993304;28;20024;-78
2021/10/21 07:33:30;;;;;;;9.10;3.60;;;;;;;14.40;88.04;97671.81;4993973;28;20053;-77
2021/10/21 07:35:57;;;;;;;7.00;3.40;;;;;;;14.42;87.82;97675.03;4993737;28;20058;-77
2021/10/21 07:38:23;;;;;;;6.38;3.83;;;;;;;14.45;88.51;97677.94;4975742;28;20475;-78
2021/10/21 07:40:49;;;;;;;7.82;3.58;;;;;;;14.44;88.84;97675.50;4975064;28;20038;-77
2021/10/21 07:43:15;;;;;;;12.77;3.55;;;;;;;14.45;88.79;97682.66;4975319;28;20022;-77
2021/10/21 07:45:41;;;;;;;11.55;4.00;;;;;;;14.48;89.16;97677.31;4992787;28;20022;-78
2021/10/21 07:48:07;;;;;;;9.90;3.92;;;;;;;14.44;89.37;97672.75;4993192;28;20034;-78
2021/10/21 07:50:34;;;;;;;15.25;3.60;;;;;;;14.42;89.11;97664.84;4992409;28;20030;-77
2021/10/21 07:53:03;;;;;;;7.13;3.65;;;;;;;14.48;89.96;97682.00;4991843;28;20120;-78
2021/10/21 07:55:30;;;;;;;6.65;3.35;;;;;;;14.51;89.84;97681.34;4992942;28;20037;-77
2021/10/21 07:57:57;;;;;;;7.88;3.20;;;;;;;14.43;90.60;97677.47;4994446;28;20049;-79
2021/10/21 08:00:24;;;;;;;6.25;3.65;;;;;;;14.51;90.82;97686.84;4993500;28;20030;-78
2021/10/21 08:02:49;;;;;;;10.73;3.53;;;;;;;14.39;92.36;97692.22;4993557;28;20045;-78
2021/10/21 08:05:15;;;;;;;6.10;3.60;;;;;;;14.42;93.52;97688.81;4974836;28;20027;-77
2021/10/21 08:07:42;;;;;;;9.43;4.22;;;;;;;14.42;94.07;97691.56;4992847;28;20025;-78
2021/10/21 08:10:08;;;;;;;5.07;3.45;;;;;;;14.43;95.23;97695.94;4992696;28;20681;-78
2021/10/21 08:12:35;;;;;;;6.85;3.83;;;;;;;14.34;96.36;97692.38;4974761;28;20037;-78
2021/10/21 08:15:00;;;;;;;10.05;3.55;;;;;;;14.31;97.08;97693.00;4992665;28;20064;-77
2021/10/21 08:17:26;;;;;;;7.43;3.47;;;;;;;14.24;97.50;97692.69;4992237;28;20062;-77
2021/10/21 08:19:51;;;;;;;10.93;3.60;;;;;;;14.24;98.07;97698.19;4992764;28;20022;-78
2021/10/21 08:22:17;;;;;;;6.47;3.40;;;;;;;14.26;99.65;97701.41;4992650;28;20019;-78
2021/10/21 08:24:42;;;;;;;6.72;3.33;;;;;;;14.10;100.00;97697.53;4992591;28;20022;-78
2021/10/21 08:27:07;;;;;;;7.47;3.30;;;;;;;14.09;100.00;97687.69;4992132;28;20032;-76
2021/10/21 08:29:33;;;;;;;6.88;3.42;;;;;;;14.11;100.00;97682.66;4991875;28;20100;-77
2021/10/21 08:32:07;;;;;;;9.07;3.50;;;;;;;14.05;100.00;97690.28;4992469;28;20796;-77
2021/10/21 08:34:33;;;;;;;5.40;3.33;;;;;;;14.05;100.00;97682.03;4992591;28;20041;-77
2021/10/21 08:37:00;;;;;;;7.60;4.10;;;;;;;13.98;100.00;97684.44;4977470;28;20085;-78
2021/10/21 08:39:25;;;;;;;9.38;4.07;;;;;;;13.99;100.00;97679.75;4992932;28;20639;-78
2021/10/21 08:41:51;;;;;;;6.88;3.50;;;;;;;14.01;100.00;97683.78;4993456;28;20056;-76
2021/10/21 08:44:17;;;;;;;5.72;3.45;;;;;;;14.02;100.00;97684.63;4993024;28;20030;-77
2021/10/21 08:46:45;;;;;;;6.50;3.78;;;;;;;13.99;100.00;97672.31;4994623;28;20364;-78
2021/10/21 08:49:12;;;;;;;7.97;3.80;;;;;;;14.05;100.00;97672.97;4997406;28;20030;-77
2021/10/21 08:51:38;;;;;;;7.60;3.75;;;;;;;14.14;100.00;97679.25;4998820;28;20022;-80
2021/10/21 08:54:04;;;;;;;7.72;4.32;;;;;;;14.06;100.00;97674.59;4996174;28;20034;-79
2021/10/21 08:56:31;;;;;;;5.03;3.65;;;;;;;13.99;100.00;97668.75;4995127;28;20030;-79
2021/10/21 08:58:58;;;;;;;12.70;4.18;;;;;;;14.02;100.00;97668.91;4996500;28;20838;-79
2021/10/21 09:04:39;;;;;;;7.72;4.55;;;;;;;13.97;100.00;97660.03;4992557;28;20399;-78
2021/10/21 09:09:42;;;;;;;7.28;4.43;;;;;;;13.94;100.00;97662.28;4994503;28;20040;-77
2021/10/21 09:12:12;;;;;;;7.20;3.97;;;;;;;13.97;100.00;97655.31;4977022;28;20026;-79
2021/10/21 09:14:44;;;;;;;8.18;4.82;;;;;;;13.98;100.00;97661.63;4975727;28;20092;-78
2021/10/21 09:17:11;;;;;;;10.25;4.57;;;;;;;14.01;100.00;97656.28;4993392;28;20041;-79
2021/10/21 09:19:39;;;;;;;9.88;4.30;;;;;;;13.92;100.00;97656.31;4976697;28;20109;-78
2021/10/21 09:22:07;;;;;;;6.38;4.68;;;;;;;13.93;100.00;97660.69;4994349;28;20022;-78
2021/10/21 09:24:41;;;;;;;8.68;5.07;;;;;;;13.93;100.00;97654.38;4977084;28;20033;-77
2021/10/21 09:27:09;;;;;;;10.55;4.70;;;;;;;13.96;100.00;97653.72;4997725;28;20107;-79
2021/10/21 09:29:44;;;;;;;10.57;5.50;;;;;;;13.94;100.00;97654.03;4978894;28;20050;-78
2021/10/21 09:32:18;;;;;;;11.10;5.05;;;;;;;14.03;100.00;97653.22;4956857;28;20046;-78
2021/10/21 09:34:46;;;;;;;10.30;5.22;;;;;;;14.05;100.00;97656.47;4978085;28;20026;-79
2021/10/21 09:37:12;;;;;;;9.45;4.97;;;;;;;13.96;100.00;97653.72;4995012;28;20022;-79
2021/10/21 09:39:55;;;;;;;13.10;5.47;;;;;;;14.05;100.00;97656.47;4998191;28;20034;-78
2021/10/21 09:42:33;;;;;;;9.13;5.25;;;;;;;14.16;100.00;97653.03;5015743;28;20061;-79
2021/10/21 09:45:20;;;;;;;10.38;6.38;;;;;;;14.17;100.00;97651.09;5003929;28;20077;-77
2021/10/21 09:47:49;;;;;;;6.53;4.35;;;;;;;14.25;100.00;97647.53;4981585;28;20076;-79
2021/10/21 09:50:17;;;;;;;6.93;4.15;;;;;;;14.37;100.00;97653.22;4981863;28;20023;-81
2021/10/21 09:53:18;;;;;;;7.82;4.45;;;;;;;14.48;100.00;97659.97;4978902;28;20031;-79
2021/10/21 09:55:46;;;;;;;6.85;4.40;;;;;;;14.47;100.00;97647.38;4979340;28;20039;-79
2021/10/21 09:58:12;;;;;;;7.03;4.18;;;;;;;14.62;100.00;97654.28;4979004;28;20118;-80
2021/10/21 10:00:39;;;;;;;9.27;4.32;;;;;;;14.86;100.00;97654.50;4980993;28;20076;-80
2021/10/21 10:03:13;;;;;;;7.90;4.22;;;;;;;14.92;100.00;97659.50;4999246;28;20030;-78
2021/10/21 10:05:46;;;;;;;9.32;4.55;;;;;;;15.14;100.00;97663.13;5018203;28;20471;-79
2021/10/21 10:08:12;;;;;;;7.90;4.63;;;;;;;15.26;100.00;97665.97;5019030;28;20030;-79
2021/10/21 10:10:44;;;;;;;9.65;4.68;;;;;;;15.20;100.00;97659.84;5019746;28;20402;-80
2021/10/21 10:13:10;;;;;;;8.52;4.65;;;;;;;15.29;100.00;97657.03;5020476;28;20105;-78
2021/10/21 10:15:37;;;;;;;8.40;4.70;;;;;;;15.41;100.00;97655.19;5003284;28;20033;-80
2021/10/21 10:18:06;;;;;;;9.02;4.43;;;;;;;15.67;100.00;97644.00;5024789;28;20049;-80
2021/10/21 10:20:31;;;;;;;8.88;4.70;;;;;;;15.93;100.00;97641.88;5024821;28;20076;-80
2021/10/21 10:23:01;;;;;;;8.13;4.18;;;;;;;16.13;100.00;97647.69;5008850;28;20022;-79
2021/10/21 10:25:26;;;;;;;10.90;4.88;;;;;;;16.29;99.55;97646.69;5005284;28;20086;-79
2021/10/21 10:28:04;;;;;;;8.52;4.90;;;;;;;16.51;98.04;97648.25;4987062;28;20184;-81
2021/10/21 10:30:49;;;;;;;8.32;4.90;;;;;;;16.35;99.02;97639.03;5005330;28;20034;-79
2021/10/21 10:33:42;;;;;;;8.23;4.80;;;;;;;16.17;100.00;97643.09;5002214;28;20038;-82
2021/10/21 10:36:23;;;;;;;7.53;3.85;;;;;;;16.01;100.00;97640.97;4984915;28;20138;-80
2021/10/21 10:38:49;;;;;;;6.25;4.10;;;;;;;15.92;100.00;97629.19;5001985;28;20029;-83
2021/10/21 10:41:45;;;;;;;9.35;4.47;;;;;;;15.52;100.00;97634.41;4999599;28;20042;-80
2021/10/21 10:44:36;;;;;;;9.65;4.13;;;;;;;15.45;100.00;97639.59;4987157;28;20102;-79
2021/10/21 10:47:12;;;;;;;5.88;3.70;;;;;;;15.28;100.00;97628.69;4965365;28;20126;-79
2021/10/21 10:49:40;;;;;;;8.10;3.45;;;;;;;15.30;99.15;97628.34;5000697;28;20554;-79
2021/10/21 10:52:11;;;;;;;6.25;3.90;;;;;;;15.30;99.63;97622.84;5000738;28;20019;-79
2021/10/21 10:54:43;;;;;;;8.18;3.60;;;;;;;15.45;99.66;97625.00;5002911;28;20094;-79
2021/10/21 10:57:32;;;;;;;7.63;3.67;;;;;;;15.47;98.88;97636.50;5003806;28;20030;-80
2021/10/21 11:00:00;;;;;;;9.52;4.68;;;;;;;15.51;99.30;97637.47;4984233;28;20039;-80
2021/10/21 11:02:25;;;;;;;5.47;3.30;;;;;;;15.42;99.96;97626.47;4980541;28;20555;-79
2021/10/21 11:04:51;;;;;;;6.75;3.58;;;;;;;15.33;100.00;97627.69;4979129;28;20055;-78
2021/10/21 11:07:17;;;;;;;8.93;3.20;;;;;;;15.37;100.00;97621.19;4975967;28;20023;-79
2021/10/21 11:09:44;;;;;;;5.82;3.28;;;;;;;15.38;100.00;97622.00;4979637;28;20058;-80
2021/10/21 11:12:13;;;;;;;8.68;3.35;;;;;;;15.41;100.00;97615.81;4988101;28;20027;-80
2021/10/21 11:14:43;;;;;;;8.13;3.55;;;;;;;15.45;100.00;97623.06;4994606;28;20076;-79
2021/10/21 11:17:10;;;;;;;6.03;3.42;;;;;;;15.36;100.00;97614.03;4990941;28;20050;-80
2021/10/21 11:19:45;;;;;;;6.65;3.40;;;;;;;15.10;100.00;97615.34;4988931;28;20042;-80
2021/10/21 11:22:32;;;;;;;6.80;3.30;;;;;;;14.81;100.00;97616.97;4995495;28;20035;-78
2021/10/21 11:25:00;;;;;;;8.30;3.70;;;;;;;14.73;100.00;97611.47;5000367;28;20035;-81
2021/10/21 11:27:33;;;;;;;14.15;3.97;;;;;;;14.76;100.00;97610.81;4993194;28;20041;-81
2021/10/21 11:30:06;;;;;;;8.27;3.58;;;;;;;14.74;100.00;97602.88;5012012;28;20042;-80
2021/10/21 11:32:34;;;;;;;6.00;3.40;;;;;;;14.61;100.00;97612.16;5015793;28;20042;-80
2021/10/21 11:35:00;;;;;;;7.47;3.20;;;;;;;14.50;100.00;97613.69;5008080;28;20034;-79